Time;durP1;ratioP1;P1;durP2;ratioP2;P2;SDS_P1;SDS_P2;PMS_P1;PMS_P2;Temp;Humidity;BMP_temperature;BMP_pressure;BME280_temperature;BME280_humidity;BME280_pressure;Samples;Min_cycle;Max_cycle;Signal;HPM_P1;HPM_P2
2022/08/31 00:06:30;;;;;;;0.85;0.70;;;;;;;22.99;36.12;101939.44;16141072;19;129939;-58
2022/08/31 00:11:52;;;;;;;2.95;0.80;;;;;;;23.00;36.50;101943.06;16140913;19;129187;-58
2022/08/31 00:17:15;;;;;;;0.73;0.50;;;;;;;22.98;36.24;101934.97;16140855;19;130960;-59
2022/08/31 00:22:37;;;;;;;1.15;0.50;;;;;;;22.99;36.39;101931.06;16138714;19;130687;-58
2022/08/31 00:27:59;;;;;;;1.33;0.50;;;;;;;23.00;36.34;101931.91;16140904;19;129837;-58
2022/08/31 00:33:21;;;;;;;1.33;0.60;;;;;;;22.98;36.81;101929.38;16140685;19;129782;-58
2022/08/31 00:38:43;;;;;;;0.70;0.50;;;;;;;22.97;36.45;101936.06;16139077;19;130829;-57
2022/08/31 00:44:09;;;;;;;2.67;0.70;;;;;;;22.98;36.55;101928.53;16137898;19;129348;-58
2022/08/31 00:49:34;;;;;;;1.38;0.38;;;;;;;22.98;36.50;101928.53;16136883;19;131586;-58
2022/08/31 00:55:06;;;;;;;1.07;0.50;;;;;;;22.97;36.30;101921.25;16142046;19;130872;-58
2022/08/31 01:00:29;;;;;;;3.90;0.52;;;;;;;22.97;36.64;101924.03;16133903;19;129728;-58
2022/08/31 01:05:51;;;;;;;1.08;0.50;;;;;;;22.94;36.56;101917.03;16135524;19;129242;-58
2022/08/31 01:11:15;;;;;;;2.10;0.52;;;;;;;22.95;36.67;101926.25;16136033;19;130140;-58
2022/08/31 01:16:43;;;;;;;1.52;0.50;;;;;;;22.95;36.62;101917.88;16135786;19;129159;-59
2022/08/31 01:22:29;;;;;;;0.80;0.70;;;;;;;22.96;36.67;101919.53;16137993;19;129422;-58
2022/08/31 01:27:52;;;;;;;0.53;0.33;;;;;;;22.92;36.88;101916.41;16138780;19;129424;-58
2022/08/31 01:33:13;;;;;;;0.77;0.60;;;;;;;22.93;36.79;101918.13;16139235;19;129525;-58
2022/08/31 01:38:35;;;;;;;0.82;0.40;;;;;;;22.92;37.20;101916.41;16136385;19;129927;-58
2022/08/31 01:43:57;;;;;;;1.27;0.50;;;;;;;22.93;36.94;101922.88;16133467;19;129406;-58
2022/08/31 01:49:21;;;;;;;0.88;0.35;;;;;;;22.92;36.98;101913.63;16131407;19;129945;-58
2022/08/31 01:54:43;;;;;;;2.83;0.40;;;;;;;22.91;37.19;101925.88;16137673;19;129216;-64
2022/08/31 02:00:07;;;;;;;0.40;0.40;;;;;;;22.92;36.89;101926.75;16137772;19;129923;-62
2022/08/31 02:05:29;;;;;;;1.37;0.37;;;;;;;22.91;37.09;101923.09;16130628;19;129016;-62
2022/08/31 02:10:54;;;;;;;0.32;0.30;;;;;;;22.91;37.11;101925.88;16131844;19;130459;-64
2022/08/31 02:16:16;;;;;;;1.63;0.40;;;;;;;22.91;37.31;101927.84;16134865;19;129984;-61
2022/08/31 02:21:38;;;;;;;1.75;0.45;;;;;;;22.89;37.29;101925.28;16138793;19;129442;-63
2022/08/31 02:26:59;;;;;;;0.30;0.28;;;;;;;22.88;37.15;101932.78;16129208;19;128963;-69
2022/08/31 02:32:22;;;;;;;0.75;0.40;;;;;;;22.88;37.15;101930.00;16135993;19;129852;-66
2022/08/31 02:37:44;;;;;;;1.42;0.50;;;;;;;22.88;36.92;101937.53;16137443;19;129205;-65
2022/08/31 02:43:09;;;;;;;4.13;0.60;;;;;;;22.87;37.12;101933.88;16131555;19;129780;-67
2022/08/31 02:48:36;;;;;;;1.23;0.30;;;;;;;22.86;37.23;101932.19;16131400;19;129167;-66
2022/08/31 02:53:58;;;;;;;0.38;0.30;;;;;;;22.86;37.40;101923.81;16134011;19;129418;-65
2022/08/31 02:59:20;;;;;;;0.82;0.38;;;;;;;22.85;37.35;101924.09;16135910;19;129889;-65
2022/08/31 03:04:42;;;;;;;0.80;0.30;;;;;;;22.85;37.44;101926.88;16128375;19;130763;-65
2022/08/31 03:10:07;;;;;;;0.68;0.45;;;;;;;22.85;37.57;101921.28;16132547;19;130183;-58
2022/08/31 03:15:29;;;;;;;0.57;0.40;;;;;;;22.83;37.42;101929.06;16132987;19;129103;-58
2022/08/31 03:20:50;;;;;;;0.60;0.40;;;;;;;22.83;37.74;101923.50;16140951;19;129409;-58
2022/08/31 03:26:12;;;;;;;0.88;0.55;;;;;;;22.83;37.36;101920.69;16142833;19;130696;-58
2022/08/31 03:31:34;;;;;;;0.30;0.30;;;;;;;22.83;37.42;101924.31;16146426;19;129518;-58
2022/08/31 03:36:56;;;;;;;0.55;0.30;;;;;;;22.81;37.48;101923.75;16144111;19;129606;-58
2022/08/31 03:42:18;;;;;;;1.08;0.40;;;;;;;22.81;37.27;101931.25;16143516;19;129331;-58
2022/08/31 03:47:40;;;;;;;1.02;0.30;;;;;;;22.82;37.33;101932.94;16142566;19;129785;-58
2022/08/31 03:53:07;;;;;;;0.52;0.40;;;;;;;22.80;37.89;101937.94;16143260;19;129055;-58
2022/08/31 03:58:31;;;;;;;0.38;0.30;;;;;;;22.79;37.71;101937.09;16143986;19;129212;-58
2022/08/31 04:03:53;;;;;;;2.00;0.52;;;;;;;22.79;37.25;101939.03;16143723;19;130039;-59
2022/08/31 04:09:14;;;;;;;1.33;0.57;;;;;;;22.78;37.95;101937.31;16142758;19;129645;-58
2022/08/31 04:14:36;;;;;;;1.05;0.55;;;;;;;22.78;37.69;101937.31;16140929;19;129234;-59
2022/08/31 04:19:58;;;;;;;1.33;0.35;;;;;;;22.77;37.61;101942.06;16143382;19;129364;-56
2022/08/31 04:25:20;;;;;;;1.55;0.30;;;;;;;22.77;37.84;101936.50;16139742;19;129519;-58
2022/08/31 04:30:42;;;;;;;0.50;0.40;;;;;;;22.76;37.66;101945.97;16141011;19;129665;-58
2022/08/31 04:36:09;;;;;;;1.65;0.47;;;;;;;22.76;37.64;101945.13;16143387;19;129650;-58
2022/08/31 04:41:34;;;;;;;0.70;0.40;;;;;;;22.76;37.63;101950.69;16142894;19;129446;-59
2022/08/31 04:46:56;;;;;;;1.80;0.40;;;;;;;22.74;37.85;101937.00;16137718;19;129784;-59
2022/08/31 04:52:18;;;;;;;1.38;0.60;;;;;;;22.73;37.83;101941.72;16139055;19;129715;-57
2022/08/31 04:57:49;;;;;;;2.13;0.63;;;;;;;22.72;37.89;101940.03;16132802;19;129537;-57
2022/08/31 05:03:11;;;;;;;0.45;0.43;;;;;;;22.72;37.60;101944.75;16139979;19;130891;-58
2022/08/31 05:08:33;;;;;;;1.10;0.40;;;;;;;22.71;37.83;101954.22;16138986;19;129360;-61
2022/08/31 05:13:57;;;;;;;1.38;0.60;;;;;;;22.71;37.74;101960.66;16141523;19;132394;-61
2022/08/31 05:19:19;;;;;;;20.45;1.20;;;;;;;22.73;37.75;101968.75;16136964;19;130354;-61
2022/08/31 05:24:41;;;;;;;8.02;0.60;;;;;;;22.73;37.77;101969.63;16138846;19;129325;-61
2022/08/31 05:30:03;;;;;;;1.25;0.60;;;;;;;22.74;37.86;101976.03;16140746;19;129130;-61
2022/08/31 05:35:25;;;;;;;2.30;0.70;;;;;;;22.74;37.94;101976.91;16141440;19;130922;-61
2022/08/31 05:40:54;;;;;;;8.02;0.73;;;;;;;22.74;37.91;101976.03;16136600;19;129353;-61
2022/08/31 05:46:17;;;;;;;3.58;0.70;;;;;;;22.73;38.02;101975.22;16135638;19;129329;-61
2022/08/31 05:51:39;;;;;;;3.58;0.70;;;;;;;22.73;37.79;101978.00;16137207;19;129655;-61
2022/08/31 05:57:02;;;;;;;2.80;0.80;;;;;;;22.74;37.65;101982.47;16140470;19;129968;-61
2022/08/31 06:02:25;;;;;;;2.30;0.60;;;;;;;22.76;37.91;101987.81;16138189;19;129601;-61
2022/08/31 06:07:47;;;;;;;4.47;0.85;;;;;;;22.81;38.02;101978.69;16127213;19;131437;-63
2022/08/31 06:13:12;;;;;;;1.98;0.73;;;;;;;22.83;37.81;101973.69;16137271;19;129485;-60
2022/08/31 06:18:39;;;;;;;4.90;0.80;;;;;;;22.87;37.58;101972.13;16135918;19;129429;-61
2022/08/31 06:24:02;;;;;;;1.75;0.70;;;;;;;22.94;37.51;101969.22;16137123;19;130457;-61
2022/08/31 06:29:26;;;;;;;2.15;0.70;;;;;;;23.00;37.77;101980.22;16136700;19;129319;-62
2022/08/31 06:34:47;;;;;;;1.73;0.40;;;;;;;23.04;37.58;101970.22;16136099;19;129148;-66
2022/08/31 06:40:10;;;;;;;2.97;0.75;;;;;;;23.12;37.48;101976.50;16131372;19;130398;-70
2022/08/31 06:45:32;;;;;;;4.10;0.63;;;;;;;23.16;37.20;101977.69;16133470;19;129714;-68
2022/08/31 06:50:55;;;;;;;4.07;0.60;;;;;;;23.22;37.37;101987.84;16131394;19;129364;-68
2022/08/31 06:56:20;;;;;;;6.45;0.55;;;;;;;23.28;37.35;102003.56;16162267;19;129275;-69
2022/08/31 07:01:42;;;;;;;1.67;0.50;;;;;;;23.33;37.26;102016.78;16167722;19;129439;-68
2022/08/31 07:07:07;;;;;;;1.60;0.70;;;;;;;23.40;37.26;102025.00;16161351;19;129866;-69
2022/08/31 07:12:29;;;;;;;2.90;0.57;;;;;;;23.44;37.20;102027.06;16163313;19;129941;-63
2022/08/31 07:17:51;;;;;;;2.22;0.73;;;;;;;23.50;37.04;102033.56;16166771;19;130266;-66
2022/08/31 07:23:13;;;;;;;3.30;0.50;;;;;;;23.54;36.86;102023.56;16160579;19;129913;-60
2022/08/31 07:28:37;;;;;;;3.72;0.80;;;;;;;23.61;36.89;102035.47;16158971;19;129490;-61
2022/08/31 07:33:59;;;;;;;3.92;0.50;;;;;;;23.62;36.88;102036.31;16162284;19;129910;-62
2022/08/31 07:45:04;;;;;;;1.90;0.50;;;;;;;23.61;36.85;102046.66;16157811;19;128954;-59
2022/08/31 07:50:30;;;;;;;8.68;0.73;;;;;;;23.58;37.20;102054.63;16159456;19;130125;-59
2022/08/31 07:55:54;;;;;;;5.90;1.02;;;;;;;23.54;37.06;102051.50;16171780;19;129749;-64
2022/08/31 08:01:16;;;;;;;4.40;0.60;;;;;;;23.57;37.01;102050.16;16166093;19;129489;-59
2022/08/31 08:06:38;;;;;;;3.75;0.80;;;;;;;23.60;37.31;102050.53;16150726;19;128970;-60
2022/08/31 08:12:05;;;;;;;2.90;0.70;;;;;;;23.62;37.01;102059.50;16146681;19;129400;-59
2022/08/31 08:17:28;;;;;;;2.58;0.47;;;;;;;23.65;36.87;102060.94;16155828;19;128979;-59
2022/08/31 08:22:49;;;;;;;3.50;0.70;;;;;;;23.64;37.04;102062.03;16173685;19;130138;-56
2022/08/31 08:28:17;;;;;;;3.25;0.50;;;;;;;23.63;36.98;102069.56;16170782;19;129345;-54
2022/08/31 08:33:59;;;;;;;4.05;0.70;;;;;;;23.60;37.15;102060.84;16149251;19;129633;-56
2022/08/31 08:39:21;;;;;;;3.50;0.80;;;;;;;23.58;37.04;102065.78;16149661;19;129042;-57
2022/08/31 08:44:43;;;;;;;0.77;0.50;;;;;;;23.56;37.47;102057.69;16145927;19;129551;-56
2022/08/31 08:50:06;;;;;;;4.22;0.60;;;;;;;23.54;37.21;102065.47;16141576;19;128940;-60
2022/08/31 08:55:34;;;;;;;2.80;0.50;;;;;;;23.54;37.13;102061.84;16148106;19;129457;-57
2022/08/31 09:00:57;;;;;;;1.30;0.40;;;;;;;23.53;37.14;102060.16;16146032;19;130810;-56
2022/08/31 09:06:52;;;;;;;2.45;0.90;;;;;;;23.58;37.19;102052.72;16143363;19;129824;-55
2022/08/31 09:12:34;;;;;;;3.40;0.60;;;;;;;23.61;36.99;102046.66;16147940;19;129080;-54
2022/08/31 09:18:13;;;;;;;1.70;0.45;;;;;;;23.63;37.17;102050.00;16158599;19;129454;-54
2022/08/31 09:23:40;;;;;;;1.70;0.82;;;;;;;23.62;37.23;102062.31;16204765;19;128350;-54
2022/08/31 09:29:12;;;;;;;1.38;0.55;;;;;;;23.62;36.88;102055.84;16143018;19;129407;-53
2022/08/31 09:34:40;;;;;;;1.63;0.70;;;;;;;23.61;37.10;102052.22;16150990;19;129337;-54
2022/08/31 09:40:34;;;;;;;0.60;0.35;;;;;;;23.61;37.17;102045.78;16146085;19;129541;-55
2022/08/31 09:46:05;;;;;;;1.10;0.40;;;;;;;23.60;37.03;102049.66;16195735;19;128510;-54
2022/08/31 09:51:32;;;;;;;1.02;0.40;;;;;;;23.59;36.98;102046.03;16199556;19;128808;-57
2022/08/31 09:56:56;;;;;;;0.50;0.40;;;;;;;23.57;36.71;102039.81;16200247;19;129272;-56
2022/08/31 10:02:21;;;;;;;1.57;0.47;;;;;;;23.55;36.99;102041.19;16205749;19;130362;-56
2022/08/31 10:08:03;;;;;;;1.20;0.50;;;;;;;23.54;37.25;102025.53;16203234;19;128962;-55
2022/08/31 10:13:41;;;;;;;1.52;0.55;;;;;;;23.53;37.20;102021.03;16205157;19;129235;-57
2022/08/31 10:19:12;;;;;;;2.85;0.40;;;;;;;23.51;36.93;102024.94;16210725;19;129402;-54
2022/08/31 10:24:45;;;;;;;3.88;0.32;;;;;;;23.50;37.00;102028.81;16202838;19;129185;-51
2022/08/31 10:30:12;;;;;;;0.65;0.60;;;;;;;23.48;37.27;102025.44;16159803;19;128937;-55
2022/08/31 10:35:57;;;;;;;0.82;0.50;;;;;;;23.46;37.29;102010.88;16142756;19;130185;-55
2022/08/31 10:41:26;;;;;;;2.30;0.63;;;;;;;23.47;37.26;102017.31;16140068;19;129083;-59
2022/08/31 10:46:50;;;;;;;3.70;0.50;;;;;;;23.45;37.42;102019.50;16132598;19;129340;-59
2022/08/31 10:52:19;;;;;;;1.63;0.70;;;;;;;23.46;37.58;102024.84;16136795;19;129151;-60
2022/08/31 10:57:49;;;;;;;3.65;0.93;;;;;;;23.47;37.35;102017.31;16136675;19;129275;-58
2022/08/31 11:03:16;;;;;;;3.22;0.80;;;;;;;23.47;37.64;102012.56;16137128;19;129983;-57
2022/08/31 11:08:55;;;;;;;3.53;0.70;;;;;;;23.47;37.51;102001.38;16131978;19;128995;-58
2022/08/31 11:14:52;;;;;;;3.03;0.82;;;;;;;23.48;37.46;102005.88;16135371;19;129634;-58
2022/08/31 11:20:38;;;;;;;2.10;0.60;;;;;;;23.47;37.64;102001.38;16137338;19;130220;-59
2022/08/31 11:26:49;;;;;;;3.05;1.00;;;;;;;23.45;37.39;101995.22;16132914;19;129448;-58
2022/08/31 11:32:35;;;;;;;3.65;0.73;;;;;;;23.46;37.54;102004.44;16133748;19;129555;-56
2022/08/31 11:37:57;;;;;;;2.97;1.27;;;;;;;23.45;37.56;101994.38;16134429;19;129555;-56
2022/08/31 11:43:31;;;;;;;2.20;0.90;;;;;;;23.45;37.46;101986.81;16147094;19;129910;-58
2022/08/31 11:48:53;;;;;;;1.17;0.60;;;;;;;23.43;37.50;101974.22;16142310;19;129233;-58
2022/08/31 11:54:25;;;;;;;0.80;0.60;;;;;;;23.45;37.26;101963.66;16148130;19;129446;-58
2022/08/31 11:59:48;;;;;;;1.80;0.80;;;;;;;23.43;37.70;101968.66;16145500;19;132178;-59
2022/08/31 12:05:10;;;;;;;2.40;0.88;;;;;;;23.43;37.57;101969.50;16146207;19;129864;-58
2022/08/31 12:10:49;;;;;;;1.98;0.90;;;;;;;23.44;37.24;101956.38;16146028;19;129294;-60
2022/08/31 12:16:29;;;;;;;1.35;0.60;;;;;;;23.43;37.54;101954.69;16148623;19;130222;-59
2022/08/31 12:28:06;;;;;;;3.38;1.00;;;;;;;23.43;37.55;101952.75;16143455;19;129619;-58
2022/08/31 12:33:30;;;;;;;2.30;1.10;;;;;;;23.43;37.55;101949.09;16143565;19;132419;-58
2022/08/31 12:39:06;;;;;;;2.03;1.08;;;;;;;23.42;37.85;101941.81;16142860;19;129357;-58
2022/08/31 12:44:33;;;;;;;2.72;1.13;;;;;;;23.41;37.61;101937.31;16142681;19;130011;-58
2022/08/31 12:50:14;;;;;;;1.95;1.08;;;;;;;23.41;37.80;101940.13;16137661;19;129661;-58
2022/08/31 12:55:58;;;;;;;2.95;1.48;;;;;;;23.42;37.45;101936.22;16143368;19;129327;-58
2022/08/31 13:01:24;;;;;;;2.65;1.58;;;;;;;23.41;37.71;101928.94;16143537;19;129147;-58
2022/08/31 13:06:49;;;;;;;4.05;1.63;;;;;;;23.40;37.80;101925.31;16137412;19;132019;-58
2022/08/31 13:12:22;;;;;;;8.40;2.10;;;;;;;23.42;37.78;101920.34;16142094;19;130391;-58
2022/08/31 13:17:44;;;;;;;5.63;3.20;;;;;;;23.43;37.80;101918.38;16139728;19;129605;-58
2022/08/31 13:23:09;;;;;;;17.65;4.20;;;;;;;23.42;37.44;101909.16;16139319;19;128843;-58
2022/08/31 13:28:33;;;;;;;15.20;4.60;;;;;;;23.45;37.81;101907.81;16137641;19;129169;-58
2022/08/31 13:34:01;;;;;;;8.68;4.75;;;;;;;23.48;37.88;101907.31;16140944;19;129501;-58
2022/08/31 13:39:33;;;;;;;16.48;5.05;;;;;;;23.49;38.17;101909.81;16141482;19;129361;-57
2022/08/31 13:45:00;;;;;;;14.05;4.78;;;;;;;23.51;38.08;101903.97;16140821;19;129479;-59
2022/08/31 13:50:24;;;;;;;11.00;4.53;;;;;;;23.52;38.09;101900.06;16141955;19;129124;-59
2022/08/31 13:55:47;;;;;;;7.20;4.25;;;;;;;23.53;37.60;101890.59;16140179;19;129491;-58
2022/08/31 14:01:24;;;;;;;14.75;4.97;;;;;;;23.57;38.02;101893.75;16139797;19;129535;-58
2022/08/31 14:06:49;;;;;;;14.88;4.57;;;;;;;23.56;38.24;101875.28;16136133;19;129926;-58
2022/08/31 14:12:35;;;;;;;12.30;5.17;;;;;;;23.58;38.31;101887.94;16136641;19;129249;-57
2022/08/31 14:18:00;;;;;;;9.90;4.70;;;;;;;23.58;38.45;101879.53;16134583;19;129500;-60
2022/08/31 14:24:00;;;;;;;11.40;4.35;;;;;;;23.60;38.53;101877.34;16136177;19;129639;-58
2022/08/31 14:29:22;;;;;;;14.32;5.30;;;;;;;23.61;38.89;101867.00;16132817;19;129234;-58
2022/08/31 14:34:48;;;;;;;12.85;4.53;;;;;;;23.63;39.24;101871.22;16135544;19;129126;-61
2022/08/31 14:40:12;;;;;;;;;;;;;;;23.62;39.27;101857.53;16137424;19;129458;-60
2022/08/31 14:45:36;;;;;;;13.50;4.95;;;;;;;23.65;38.77;101857.84;16136889;19;129798;-59
2022/08/31 14:50:58;;;;;;;14.18;4.90;;;;;;;23.65;39.43;101852.25;16141502;19;128898;-58
2022/08/31 14:56:23;;;;;;;10.23;4.88;;;;;;;23.65;39.32;101851.44;16141738;19;129401;-58
2022/08/31 15:01:49;;;;;;;7.50;3.85;;;;;;;23.66;39.27;101851.16;16141815;19;128865;-59
2022/08/31 15:07:11;;;;;;;10.57;4.53;;;;;;;23.70;39.38;101850.66;16136935;19;129363;-59
2022/08/31 15:12:34;;;;;;;15.68;4.50;;;;;;;23.71;39.53;101855.97;16138474;19;130161;-59
2022/08/31 15:17:56;;;;;;;7.70;3.58;;;;;;;23.73;39.54;101853.75;16155871;19;129473;-64
2022/08/31 15:23:18;;;;;;;9.10;3.90;;;;;;;23.74;39.43;101841.50;16156719;19;129050;-60
2022/08/31 15:28:40;;;;;;;9.50;3.75;;;;;;;23.76;39.37;101841.22;16151141;19;131788;-60
2022/08/31 15:34:02;;;;;;;9.68;3.92;;;;;;;23.77;39.67;101842.91;16156562;19;128943;-61
2022/08/31 15:39:37;;;;;;;9.00;3.38;;;;;;;23.77;39.21;101848.50;16153624;19;129229;-62
2022/08/31 15:44:59;;;;;;;7.25;3.45;;;;;;;23.76;39.16;101844.88;16153679;19;129308;-61
2022/08/31 15:50:25;;;;;;;6.93;3.17;;;;;;;23.77;38.83;101848.50;16148193;19;129257;-62
2022/08/31 15:55:52;;;;;;;8.68;3.35;;;;;;;23.77;38.96;101848.50;16144633;19;129661;-63
2022/08/31 16:01:16;;;;;;;7.53;3.03;;;;;;;23.79;39.11;101843.50;16150187;19;129449;-61
2022/08/31 16:06:38;;;;;;;13.47;3.63;;;;;;;23.79;38.93;101852.75;16149415;19;129381;-68
2022/08/31 16:12:01;;;;;;;8.68;2.70;;;;;;;23.80;39.30;101845.19;16148001;19;129892;-69
2022/08/31 16:17:22;;;;;;;6.80;3.00;;;;;;;23.80;39.41;101842.41;16148913;19;129760;-60
2022/08/31 16:22:44;;;;;;;9.82;3.05;;;;;;;23.81;39.35;101841.28;16154381;19;128996;-66
2022/08/31 16:28:06;;;;;;;11.85;3.00;;;;;;;23.80;39.45;101832.09;16160824;19;129724;-63
2022/08/31 16:33:28;;;;;;;10.73;3.13;;;;;;;23.82;39.27;101838.22;16159592;19;128887;-70
2022/08/31 16:38:51;;;;;;;15.50;3.17;;;;;;;23.82;39.37;101829.00;16160175;19;129849;-65
2022/08/31 16:44:13;;;;;;;14.52;3.55;;;;;;;23.81;39.22;101833.78;16161781;19;128941;-70
2022/08/31 16:49:43;;;;;;;13.48;3.35;;;;;;;23.79;39.23;101823.94;16159470;19;129836;-71
2022/08/31 16:55:05;;;;;;;11.55;3.33;;;;;;;23.80;39.23;101820.03;16160010;19;128977;-71
2022/08/31 17:00:29;;;;;;;7.18;3.25;;;;;;;23.77;39.31;101817.75;16158988;19;130770;-68
2022/08/31 17:05:56;;;;;;;10.15;3.40;;;;;;;23.76;39.36;101828.09;16163542;19;129708;-67
2022/08/31 17:11:22;;;;;;;14.93;3.67;;;;;;;23.76;39.11;101827.25;16164340;19;129785;-70
2022/08/31 17:16:45;;;;;;;22.02;3.20;;;;;;;23.76;39.44;101819.72;16166556;19;129370;-68
2022/08/31 17:22:09;;;;;;;15.73;3.90;;;;;;;23.77;39.30;101828.94;16162258;19;129608;-72
2022/08/31 17:27:33;;;;;;;10.30;4.80;;;;;;;23.78;39.88;101830.63;16161104;19;128981;-74
2022/08/31 17:32:55;;;;;;;13.57;3.58;;;;;;;23.76;39.45;101830.03;16162312;19;128952;-69
2022/08/31 17:38:17;;;;;;;10.38;3.88;;;;;;;23.76;39.63;101836.50;16157910;19;130469;-69
2022/08/31 17:43:39;;;;;;;15.52;3.30;;;;;;;23.77;39.52;101843.78;16162214;19;128969;-68
2022/08/31 17:49:01;;;;;;;8.13;3.20;;;;;;;23.77;39.35;101838.19;16157214;19;129392;-68
2022/08/31 17:54:31;;;;;;;4.65;3.20;;;;;;;23.77;39.40;101842.91;16160589;19;129682;-68
2022/08/31 17:59:56;;;;;;;9.50;3.65;;;;;;;23.77;39.45;101854.94;16161104;19;129816;-66
2022/08/31 18:05:18;;;;;;;7.60;3.40;;;;;;;23.77;39.44;101848.50;16154999;19;129491;-68
2022/08/31 18:10:40;;;;;;;12.88;4.05;;;;;;;23.77;39.58;101851.28;16153352;19;129321;-69
2022/08/31 18:16:08;;;;;;;9.55;3.33;;;;;;;23.77;39.11;101857.75;16159072;19;129716;-69
2022/08/31 18:21:30;;;;;;;8.40;3.13;;;;;;;23.76;39.39;101861.63;16157043;19;128930;-70
2022/08/31 18:26:52;;;;;;;7.95;3.00;;;;;;;23.77;39.50;101871.72;16155655;19;130242;-69
2022/08/31 18:32:14;;;;;;;7.57;3.40;;;;;;;23.76;39.17;101877.53;16158196;19;131104;-67
2022/08/31 18:37:35;;;;;;;8.55;3.38;;;;;;;23.77;39.59;101887.59;16146259;19;128976;-71
2022/08/31 18:48:38;;;;;;;5.88;3.03;;;;;;;23.77;39.31;101898.78;16131364;19;129494;-72
2022/08/31 18:54:02;;;;;;;7.80;2.72;;;;;;;23.77;39.32;101901.59;16138068;19;129551;-72
2022/08/31 18:59:24;;;;;;;5.15;2.67;;;;;;;23.73;39.17;101898.47;16132895;19;129714;-72
2022/08/31 19:04:46;;;;;;;6.88;2.40;;;;;;;23.71;39.10;101911.00;16137064;19;129191;-71
2022/08/31 19:10:10;;;;;;;4.80;2.35;;;;;;;23.68;39.20;101906.78;16134327;19;129186;-71
2022/08/31 19:15:36;;;;;;;;;;;;;;;23.64;39.54;101923.19;16137040;19;130306;-72
2022/08/31 19:21:09;;;;;;;3.50;2.10;;;;;;;23.63;39.16;101921.50;16132581;19;129481;-65
2022/08/31 19:26:36;;;;;;;6.97;2.17;;;;;;;23.61;39.63;101920.94;16133300;19;129322;-67
2022/08/31 19:32:00;;;;;;;5.22;2.20;;;;;;;23.61;39.70;101920.06;16133800;19;129735;-63
2022/08/31 19:37:22;;;;;;;9.23;2.10;;;;;;;23.60;40.11;101922.03;16133416;19;129221;-66
2022/08/31 19:42:44;;;;;;;7.82;2.22;;;;;;;23.60;40.50;101927.63;16135096;19;129577;-64
2022/08/31 19:48:26;;;;;;;12.73;2.17;;;;;;;23.62;40.33;101936.59;16131357;19;132937;-67
2022/08/31 19:53:49;;;;;;;3.58;1.75;;;;;;;23.64;40.24;101930.75;16134435;19;131229;-52
2022/08/31 19:59:16;;;;;;;9.70;1.83;;;;;;;23.64;40.20;101934.38;16133437;19;129692;-59
2022/08/31 20:04:40;;;;;;;4.97;1.73;;;;;;;23.65;40.13;101936.06;16148167;19;129615;-64
2022/08/31 20:10:02;;;;;;;5.50;1.77;;;;;;;23.67;40.11;101938.63;16146495;19;130131;-69
2022/08/31 20:15:24;;;;;;;7.45;2.03;;;;;;;23.68;39.82;101928.28;16146158;19;129051;-62
2022/08/31 20:20:49;;;;;;;5.00;1.85;;;;;;;23.69;39.83;101929.97;16143808;19;129722;-67
2022/08/31 20:26:11;;;;;;;3.03;1.48;;;;;;;23.66;39.96;101932.16;16140163;19;129742;-59
2022/08/31 20:31:37;;;;;;;7.35;1.40;;;;;;;23.68;39.67;101928.28;16138058;19;129474;-67
2022/08/31 20:37:01;;;;;;;3.63;1.48;;;;;;;23.65;39.56;101930.47;16145033;19;129004;-71
2022/08/31 20:42:25;;;;;;;4.25;1.45;;;;;;;23.65;39.39;101919.31;16143941;19;130235;-69
2022/08/31 20:53:28;;;;;;;5.93;1.52;;;;;;;23.64;39.51;101926.00;16137924;19;129595;-67
2022/08/31 20:59:09;;;;;;;9.27;1.52;;;;;;;23.64;39.37;101926.00;16138570;19;132333;-72
2022/08/31 21:04:35;;;;;;;5.57;1.48;;;;;;;23.60;39.14;101930.41;16142222;19;130043;-71
2022/08/31 21:09:57;;;;;;;4.50;1.20;;;;;;;23.57;39.10;101932.84;16135923;19;130534;-71
2022/08/31 21:15:21;;;;;;;4.07;1.58;;;;;;;23.53;39.09;101929.69;16140610;19;129379;-72
2022/08/31 21:20:46;;;;;;;2.42;1.00;;;;;;;23.49;38.96;101932.16;16141535;19;129589;-72
2022/08/31 21:26:14;;;;;;;5.53;1.40;;;;;;;23.47;39.00;101933.53;16141958;19;129555;-72
2022/08/31 21:31:45;;;;;;;4.63;1.13;;;;;;;23.45;38.93;101936.56;16137734;19;128916;-71
2022/08/31 21:37:18;;;;;;;1.45;0.82;;;;;;;23.42;38.83;101939.88;16144302;19;130066;-72
2022/08/31 21:42:40;;;;;;;2.78;1.00;;;;;;;23.41;38.80;101945.69;16144208;19;129591;-72
2022/08/31 21:48:02;;;;;;;1.98;1.00;;;;;;;23.38;38.87;101937.88;16138611;19;129418;-74
2022/08/31 21:53:27;;;;;;;1.60;0.90;;;;;;;23.37;38.98;101938.97;16144350;19;131128;-73
2022/08/31 21:58:49;;;;;;;3.75;0.80;;;;;;;23.35;38.76;101937.25;16140459;19;129493;-73
2022/08/31 22:04:12;;;;;;;3.67;0.73;;;;;;;23.33;38.58;101928.28;16142488;19;130113;-72
2022/08/31 22:09:36;;;;;;;2.58;0.70;;;;;;;23.31;38.54;101930.47;16139151;19;129703;-73
2022/08/31 22:14:58;;;;;;;2.28;0.95;;;;;;;23.30;38.44;101928.78;16141703;19;128922;-73
2022/08/31 22:20:20;;;;;;;3.17;0.93;;;;;;;23.28;38.43;101930.97;16139828;19;128901;-72
2022/08/31 22:25:42;;;;;;;1.10;0.60;;;;;;;23.28;38.39;101939.38;16140329;19;129329;-72
2022/08/31 22:31:06;;;;;;;1.13;0.60;;;;;;;23.27;38.39;101934.88;16137105;19;129494;-72
2022/08/31 22:36:30;;;;;;;1.60;0.65;;;;;;;23.26;38.37;101932.34;16140549;19;129217;-72
2022/08/31 22:41:54;;;;;;;2.50;0.65;;;;;;;23.25;38.31;101925.94;16140858;19;128930;-71
2022/08/31 22:47:16;;;;;;;5.13;0.80;;;;;;;23.24;37.90;101912.22;16136973;19;129804;-71
2022/08/31 22:52:38;;;;;;;1.70;0.60;;;;;;;23.24;38.35;101929.81;16139388;19;129460;-72
2022/08/31 22:58:00;;;;;;;1.30;0.50;;;;;;;23.23;38.37;101921.69;16137949;19;130236;-71
2022/08/31 23:03:22;;;;;;;2.15;0.63;;;;;;;23.23;37.95;101919.75;16136261;19;130204;-76
2022/08/31 23:08:44;;;;;;;2.38;0.63;;;;;;;23.21;38.18;101913.56;16137178;19;129526;-72
2022/08/31 23:14:08;;;;;;;1.13;0.60;;;;;;;23.21;38.04;101916.38;16138061;19;130320;-71
2022/08/31 23:19:35;;;;;;;1.57;0.60;;;;;;;23.20;37.63;101911.88;16138445;19;129227;-71
2022/08/31 23:24:59;;;;;;;1.95;0.40;;;;;;;23.18;37.69;101908.50;16138248;19;129373;-72
2022/08/31 23:30:23;;;;;;;2.35;0.50;;;;;;;23.17;37.90;101915.16;16134144;19;128990;-71
2022/08/31 23:35:46;;;;;;;0.90;0.55;;;;;;;23.17;37.86;101917.97;16141374;19;130196;-72
2022/08/31 23:41:08;;;;;;;2.25;0.47;;;;;;;23.15;37.64;101915.44;16148932;19;129332;-71
2022/08/31 23:46:36;;;;;;;0.63;0.43;;;;;;;23.15;37.68;101914.56;16152138;19;129407;-73
2022/08/31 23:51:58;;;;;;;0.80;0.45;;;;;;;23.14;37.89;101907.31;16149326;19;130474;-74
2022/08/31 23:57:21;;;;;;;0.90;0.40;;;;;;;23.14;37.68;101908.16;16152516;19;130240;-71
